Time;durP1;ratioP1;P1;durP2;ratioP2;P2;SDS_P1;SDS_P2;PMS_P1;PMS_P2;Temp;Humidity;BMP_temperature;BMP_pressure;BME280_temperature;BME280_humidity;BME280_pressure;Samples;Min_cycle;Max_cycle;Signal;HPM_P1;HPM_P2
2021/04/21 00:00:46;;;;;;;;;;;8.20;99.90;;;;;;5000915;28;19924;-74
2021/04/21 00:03:11;;;;;;;;;;;8.20;99.90;;;;;;5000108;28;19917;-74
2021/04/21 00:05:37;;;;;;;;;;;8.10;99.90;;;;;;4983730;28;19932;-74
2021/04/21 00:08:03;;;;;;;;;;;8.10;99.90;;;;;;4997147;28;20471;-74
2021/04/21 00:10:31;;;;;;;;;;;8.10;99.90;;;;;;4993815;28;19917;-74
2021/04/21 00:12:56;;;;;;;;;;;8.10;99.90;;;;;;5014213;28;19924;-74
2021/04/21 00:15:22;;;;;;;;;;;8.10;99.90;;;;;;5011239;28;19913;-74
2021/04/21 00:17:49;;;;;;;;;;;8.10;99.90;;;;;;5010300;28;19936;-74
2021/04/21 00:20:15;;;;;;;;;;;8.10;99.90;;;;;;5003723;28;20336;-74
2021/04/21 00:22:40;;;;;;;;;;;8.10;99.90;;;;;;5000552;28;19921;-74
2021/04/21 00:25:08;;;;;;;;;;;8.10;99.90;;;;;;4978121;28;19917;-74
2021/04/21 00:27:34;;;;;;;;;;;8.00;99.90;;;;;;4967302;28;19921;-74
2021/04/21 00:30:01;;;;;;;;;;;8.00;99.90;;;;;;5007741;28;19924;-74
2021/04/21 00:32:27;;;;;;;;;;;8.00;99.90;;;;;;5015502;28;19922;-74
2021/04/21 00:34:55;;;;;;;;;;;8.00;99.90;;;;;;5011091;28;19984;-74
2021/04/21 00:37:21;;;;;;;;;;;7.90;99.90;;;;;;4978330;28;20328;-73
2021/04/21 00:39:49;;;;;;;;;;;7.90;99.90;;;;;;4997782;28;19929;-74
2021/04/21 00:42:34;;;;;;;;;;;7.90;99.90;;;;;;5006699;28;19924;-74
2021/04/21 00:45:25;;;;;;;;;;;7.80;99.90;;;;;;5000660;28;19917;-74
2021/04/21 00:47:52;;;;;;;;;;;7.70;99.90;;;;;;4996399;28;19944;-74
2021/04/21 00:50:21;;;;;;;;;;;7.70;99.90;;;;;;4997481;28;19967;-73
2021/04/21 00:52:51;;;;;;;;;;;7.80;99.90;;;;;;4992074;28;19922;-73
2021/04/21 00:55:27;;;;;;;;;;;7.70;99.90;;;;;;4969126;28;19925;-74
2021/04/21 00:57:55;;;;;;;;;;;7.70;99.90;;;;;;4977983;28;19921;-74
2021/04/21 01:00:21;;;;;;;;;;;7.70;99.90;;;;;;5011203;28;19929;-74
2021/04/21 01:02:50;;;;;;;;;;;7.70;99.90;;;;;;4991718;28;20012;-74
2021/04/21 01:05:16;;;;;;;;;;;7.70;99.90;;;;;;5013606;28;19921;-74
2021/04/21 01:07:44;;;;;;;;;;;7.70;99.90;;;;;;4996588;28;19917;-74
2021/04/21 01:10:12;;;;;;;;;;;7.60;99.90;;;;;;4996496;28;19913;-74
2021/04/21 01:12:38;;;;;;;;;;;7.60;99.90;;;;;;4998192;28;20595;-74
2021/04/21 01:15:04;;;;;;;;;;;7.60;99.90;;;;;;4997368;28;20009;-74
2021/04/21 01:17:30;;;;;;;;;;;7.60;99.90;;;;;;4990961;28;19932;-74
2021/04/21 01:19:58;;;;;;;;;;;7.50;99.90;;;;;;4992203;28;19922;-75
2021/04/21 01:22:44;;;;;;;;;;;7.50;99.90;;;;;;4996210;28;19922;-74
2021/04/21 01:25:14;;;;;;;;;;;7.50;99.90;;;;;;4989736;28;19928;-74
2021/04/21 01:27:46;;;;;;;;;;;7.50;99.90;;;;;;4995387;28;19929;-74
2021/04/21 01:30:16;;;;;;;;;;;7.50;99.90;;;;;;4991997;28;20016;-74
2021/04/21 01:32:46;;;;;;;;;;;7.40;99.90;;;;;;4978260;28;19922;-74
2021/04/21 01:35:11;;;;;;;;;;;7.40;99.90;;;;;;4998520;28;20393;-74
2021/04/21 01:37:37;;;;;;;;;;;7.40;99.90;;;;;;5000880;28;19913;-74
2021/04/21 01:40:02;;;;;;;;;;;7.40;99.90;;;;;;5004248;28;19960;-74
2021/04/21 01:42:28;;;;;;;;;;;7.40;99.90;;;;;;5006336;28;19945;-74
2021/04/21 01:44:55;;;;;;;;;;;7.30;99.90;;;;;;4991445;28;19940;-73
2021/04/21 01:47:20;;;;;;;;;;;7.30;99.90;;;;;;4993011;28;19921;-74
2021/04/21 01:49:54;;;;;;;;;;;7.30;99.90;;;;;;4995765;28;19917;-74
2021/04/21 01:52:33;;;;;;;;;;;7.30;99.90;;;;;;4993108;28;19932;-74
2021/04/21 01:55:00;;;;;;;;;;;7.20;99.90;;;;;;4996151;28;19929;-74
2021/04/21 01:57:46;;;;;;;;;;;7.20;99.90;;;;;;4995673;28;19933;-74
2021/04/21 02:00:14;;;;;;;;;;;7.20;99.90;;;;;;4998018;28;20251;-74
2021/04/21 02:02:45;;;;;;;;;;;7.20;99.90;;;;;;5001313;28;19922;-73
2021/04/21 02:05:29;;;;;;;;;;;7.20;99.90;;;;;;4981684;28;19917;-74
2021/04/21 02:08:00;;;;;;;;;;;7.20;99.90;;;;;;4999731;28;19922;-74
2021/04/21 02:10:47;;;;;;;;;;;7.20;99.90;;;;;;4981578;28;19921;-74
2021/04/21 02:13:14;;;;;;;;;;;7.10;99.90;;;;;;4998948;28;19971;-74
2021/04/21 02:15:46;;;;;;;;;;;7.10;99.90;;;;;;4999752;28;20012;-74
2021/04/21 02:18:20;;;;;;;;;;;7.10;99.90;;;;;;4991287;28;19934;-73
2021/04/21 02:20:52;;;;;;;;;;;7.00;99.90;;;;;;4980298;28;19992;-74
2021/04/21 02:23:22;;;;;;;;;;;7.00;99.90;;;;;;4979642;28;20004;-74
2021/04/21 02:25:47;;;;;;;;;;;7.00;99.90;;;;;;4990884;28;20029;-74
2021/04/21 02:28:21;;;;;;;;;;;7.00;99.90;;;;;;4978808;28;20330;-74
2021/04/21 02:31:10;;;;;;;;;;;7.00;99.90;;;;;;4977518;28;19975;-74
2021/04/21 02:34:02;;;;;;;;;;;7.00;99.90;;;;;;4978955;28;19921;-74
2021/04/21 02:36:30;;;;;;;;;;;6.90;99.90;;;;;;4962557;28;19922;-74
2021/04/21 02:39:34;;;;;;;;;;;7.00;99.90;;;;;;4979506;28;20053;-74
2021/04/21 02:42:10;;;;;;;;;;;6.90;99.90;;;;;;4948958;28;19941;-74
2021/04/21 02:44:54;;;;;;;;;;;6.90;99.90;;;;;;4949577;28;19922;-74
2021/04/21 02:47:24;;;;;;;;;;;6.90;99.90;;;;;;4949716;28;19929;-74
2021/04/21 02:50:09;;;;;;;;;;;6.90;99.90;;;;;;4948076;28;20021;-74
2021/04/21 02:52:47;;;;;;;;;;;6.90;99.90;;;;;;4949430;28;19989;-74
2021/04/21 02:55:22;;;;;;;;;;;6.90;99.90;;;;;;4948481;28;20081;-74
2021/04/21 02:58:04;;;;;;;;;;;6.90;99.90;;;;;;4949621;28;19922;-74
2021/04/21 03:00:48;;;;;;;;;;;6.80;99.90;;;;;;4953075;28;19924;-74
2021/04/21 03:03:14;;;;;;;;;;;6.80;99.90;;;;;;4961735;28;20399;-74
2021/04/21 03:05:43;;;;;;;;;;;6.80;99.90;;;;;;4951958;28;19917;-74
2021/04/21 03:08:15;;;;;;;;;;;6.80;99.90;;;;;;4963570;28;20399;-74
2021/04/21 03:10:44;;;;;;;;;;;6.80;99.90;;;;;;4939568;28;19926;-74
2021/04/21 03:13:11;;;;;;;;;;;6.80;99.90;;;;;;4948134;28;19929;-74
2021/04/21 03:15:38;;;;;;;;;;;6.90;99.90;;;;;;5006729;28;19918;-74
2021/04/21 03:18:03;;;;;;;;;;;6.80;99.90;;;;;;4989838;28;19958;-74
2021/04/21 03:20:29;;;;;;;;;;;6.80;99.90;;;;;;4990639;28;20012;-74
2021/04/21 03:22:55;;;;;;;;;;;6.80;99.90;;;;;;4989895;28;19918;-74
2021/04/21 03:25:25;;;;;;;;;;;6.80;99.90;;;;;;4978753;28;20435;-74
2021/04/21 03:27:51;;;;;;;;;;;6.80;99.90;;;;;;4977220;28;19972;-74
2021/04/21 03:30:17;;;;;;;;;;;6.80;99.90;;;;;;4993663;28;19932;-74
2021/04/21 03:33:06;;;;;;;;;;;6.80;99.90;;;;;;4975051;28;19922;-74
2021/04/21 03:35:31;;;;;;;;;;;6.80;99.90;;;;;;4975704;28;20510;-74
2021/04/21 03:37:57;;;;;;;;;;;6.80;99.90;;;;;;5003181;28;19913;-74
2021/04/21 03:40:22;;;;;;;;;;;6.80;99.90;;;;;;4992858;28;19922;-74
2021/04/21 03:42:50;;;;;;;;;;;6.90;99.90;;;;;;5010260;28;19918;-74
2021/04/21 03:45:16;;;;;;;;;;;6.80;99.90;;;;;;4988992;28;19922;-74
2021/04/21 03:47:41;;;;;;;;;;;6.80;99.90;;;;;;4977546;28;19922;-74
2021/04/21 03:50:08;;;;;;;;;;;6.80;99.90;;;;;;4975810;28;20330;-74
2021/04/21 03:52:37;;;;;;;;;;;6.80;99.90;;;;;;4989067;28;20334;-74
2021/04/21 03:55:02;;;;;;;;;;;6.80;99.90;;;;;;4978125;28;19917;-74
2021/04/21 03:57:28;;;;;;;;;;;6.80;99.90;;;;;;4977650;28;19929;-74
2021/04/21 03:59:56;;;;;;;;;;;6.80;99.90;;;;;;4977596;28;19922;-74
2021/04/21 04:02:24;;;;;;;;;;;6.80;99.90;;;;;;4980864;28;19918;-74
2021/04/21 04:04:51;;;;;;;;;;;6.80;99.90;;;;;;4979832;28;20025;-74
2021/04/21 04:07:17;;;;;;;;;;;6.80;99.90;;;;;;4990244;28;19918;-74
2021/04/21 04:09:44;;;;;;;;;;;6.80;99.90;;;;;;4990377;28;20049;-73
2021/04/21 04:12:12;;;;;;;;;;;6.80;99.90;;;;;;4989178;28;19937;-73
2021/04/21 04:14:41;;;;;;;;;;;6.80;99.90;;;;;;4976168;28;19917;-74
2021/04/21 04:17:09;;;;;;;;;;;6.80;99.90;;;;;;4983453;28;19940;-74
2021/04/21 04:19:38;;;;;;;;;;;6.80;99.90;;;;;;4979695;28;19928;-74
2021/04/21 04:22:07;;;;;;;;;;;6.80;99.90;;;;;;4996971;28;20420;-73
2021/04/21 04:24:38;;;;;;;;;;;6.80;99.90;;;;;;4996798;28;19979;-73
2021/04/21 04:27:05;;;;;;;;;;;6.70;99.90;;;;;;4996946;28;20255;-73
2021/04/21 04:29:30;;;;;;;;;;;6.70;99.90;;;;;;4978504;28;19921;-73
2021/04/21 04:31:57;;;;;;;;;;;6.70;99.90;;;;;;4978763;28;20273;-73
2021/04/21 04:34:25;;;;;;;;;;;6.70;99.90;;;;;;4992390;28;19979;-74
2021/04/21 04:36:51;;;;;;;;;;;6.60;99.90;;;;;;4992159;28;19929;-73
2021/04/21 04:39:16;;;;;;;;;;;6.70;99.90;;;;;;4992194;28;19937;-73
2021/04/21 04:41:42;;;;;;;;;;;6.70;99.90;;;;;;4997118;28;19921;-73
2021/04/21 04:44:10;;;;;;;;;;;6.70;99.90;;;;;;4996133;28;20498;-73
2021/04/21 04:46:37;;;;;;;;;;;6.70;99.90;;;;;;4996389;28;19917;-73
2021/04/21 04:49:11;;;;;;;;;;;6.70;99.90;;;;;;4996801;28;19918;-74
2021/04/21 04:51:37;;;;;;;;;;;6.70;99.90;;;;;;4995496;28;19926;-74
2021/04/21 04:54:03;;;;;;;;;;;6.70;99.90;;;;;;4992882;28;19928;-74
2021/04/21 04:56:33;;;;;;;;;;;6.70;99.90;;;;;;4998055;28;20288;-73
2021/04/21 04:58:58;;;;;;;;;;;6.70;99.90;;;;;;4982817;28;20267;-74
2021/04/21 05:01:24;;;;;;;;;;;6.70;99.90;;;;;;4991869;28;19942;-73
2021/04/21 05:03:52;;;;;;;;;;;6.70;99.90;;;;;;5010849;28;19917;-74
2021/04/21 05:06:20;;;;;;;;;;;6.70;99.90;;;;;;4991471;28;19978;-74
2021/04/21 05:08:46;;;;;;;;;;;6.70;99.90;;;;;;5007203;28;21827;-74
2021/04/21 05:11:18;;;;;;;;;;;6.70;99.90;;;;;;4975821;28;19921;-73
2021/04/21 05:13:47;;;;;;;;;;;6.80;99.90;;;;;;4975019;28;19937;-74
2021/04/21 05:16:13;;;;;;;;;;;6.80;99.90;;;;;;4994258;28;19917;-74
2021/04/21 05:18:55;;;;;;;;;;;6.80;99.90;;;;;;4991330;28;19972;-73
2021/04/21 05:21:39;;;;;;;;;;;6.80;99.90;;;;;;5005749;28;19914;-74
2021/04/21 05:24:14;;;;;;;;;;;6.90;99.90;;;;;;5002464;28;19921;-74
2021/04/21 05:27:00;;;;;;;;;;;7.00;99.90;;;;;;4997460;28;19976;-73
2021/04/21 05:29:42;;;;;;;;;;;7.00;99.90;;;;;;5000636;28;20493;-73
2021/04/21 05:32:10;;;;;;;;;;;7.00;99.90;;;;;;4996089;28;19972;-74
2021/04/21 05:34:35;;;;;;;;;;;7.10;99.90;;;;;;5000285;28;19921;-73
2021/04/21 05:37:20;;;;;;;;;;;7.20;99.90;;;;;;5002820;28;19928;-74
2021/04/21 05:40:04;;;;;;;;;;;7.20;99.90;;;;;;4999750;28;19925;-74
2021/04/21 05:43:02;;;;;;;;;;;7.30;99.90;;;;;;4998012;28;19986;-74
2021/04/21 05:45:30;;;;;;;;;;;7.30;99.90;;;;;;4972828;28;19921;-74
2021/04/21 05:48:10;;;;;;;;;;;7.40;99.90;;;;;;5012723;28;19921;-74
2021/04/21 05:50:50;;;;;;;;;;;7.50;99.90;;;;;;4998917;28;19933;-74
2021/04/21 05:53:45;;;;;;;;;;;7.50;99.90;;;;;;5001441;28;19949;-74
2021/04/21 05:56:26;;;;;;;;;;;7.60;99.90;;;;;;4947517;28;19929;-73
2021/04/21 05:59:09;;;;;;;;;;;7.60;99.90;;;;;;5000290;28;19928;-73
2021/04/21 06:01:35;;;;;;;;;;;7.70;99.90;;;;;;4995495;28;20020;-74
2021/04/21 06:04:01;;;;;;;;;;;7.80;99.90;;;;;;4995419;28;19921;-74
2021/04/21 06:06:31;;;;;;;;;;;7.90;99.90;;;;;;4985632;28;19922;-74
2021/04/21 06:08:57;;;;;;;;;;;7.90;99.90;;;;;;4998557;28;20842;-74
2021/04/21 06:11:25;;;;;;;;;;;8.00;99.90;;;;;;5007899;28;20012;-74
2021/04/21 06:14:00;;;;;;;;;;;8.00;99.90;;;;;;4999878;28;19929;-74
2021/04/21 06:16:26;;;;;;;;;;;8.10;99.90;;;;;;4994465;28;20366;-74
2021/04/21 06:18:58;;;;;;;;;;;8.20;99.90;;;;;;4998503;28;19936;-74
2021/04/21 06:21:25;;;;;;;;;;;8.20;99.90;;;;;;5000702;28;20040;-74
2021/04/21 06:23:51;;;;;;;;;;;8.30;99.90;;;;;;4998544;28;19921;-74
2021/04/21 06:26:21;;;;;;;;;;;8.40;99.90;;;;;;4994712;28;19921;-74
2021/04/21 06:29:05;;;;;;;;;;;8.50;99.90;;;;;;4978110;28;20358;-74
2021/04/21 06:31:33;;;;;;;;;;;8.60;99.90;;;;;;4997841;28;19925;-74
2021/04/21 06:33:59;;;;;;;;;;;8.70;99.90;;;;;;5007243;28;19960;-74
2021/04/21 06:36:24;;;;;;;;;;;8.70;99.90;;;;;;5015733;28;19968;-74
2021/04/21 06:38:53;;;;;;;;;;;8.80;99.90;;;;;;4986403;28;19956;-74
2021/04/21 06:41:23;;;;;;;;;;;8.90;99.90;;;;;;4998531;28;19995;-74
2021/04/21 06:43:48;;;;;;;;;;;9.00;99.90;;;;;;4998644;28;19964;-74
2021/04/21 06:46:14;;;;;;;;;;;9.10;99.90;;;;;;4994153;28;19921;-74
2021/04/21 06:48:39;;;;;;;;;;;9.20;99.90;;;;;;4996659;28;20355;-74
2021/04/21 06:51:05;;;;;;;;;;;9.30;99.90;;;;;;4998989;28;20198;-74
2021/04/21 06:53:31;;;;;;;;;;;9.40;99.90;;;;;;4980398;28;19917;-75
2021/04/21 06:55:56;;;;;;;;;;;9.40;99.90;;;;;;4998170;28;19928;-74
2021/04/21 06:58:22;;;;;;;;;;;9.60;99.90;;;;;;4998745;28;19921;-74
2021/04/21 07:00:50;;;;;;;;;;;9.70;99.90;;;;;;4997885;28;20365;-74
2021/04/21 07:03:17;;;;;;;;;;;9.80;99.90;;;;;;4999082;28;19929;-74
2021/04/21 07:05:45;;;;;;;;;;;9.90;99.90;;;;;;4998785;28;19918;-74
2021/04/21 07:08:17;;;;;;;;;;;10.00;99.90;;;;;;4999350;28;19921;-74
2021/04/21 07:10:46;;;;;;;;;;;10.10;99.90;;;;;;4995932;28;19933;-74
2021/04/21 07:13:16;;;;;;;;;;;10.10;99.90;;;;;;4997714;28;20318;-74
2021/04/21 07:15:45;;;;;;;;;;;10.30;99.90;;;;;;4993939;28;19953;-74
2021/04/21 07:18:11;;;;;;;;;;;10.30;99.90;;;;;;4998966;28;19937;-72
2021/04/21 07:20:37;;;;;;;;;;;10.40;99.90;;;;;;4993473;28;19921;-73
2021/04/21 07:23:02;;;;;;;;;;;10.50;99.90;;;;;;4993725;28;20096;-72
2021/04/21 07:25:28;;;;;;;;;;;10.60;99.90;;;;;;4993480;28;19953;-73
2021/04/21 07:27:53;;;;;;;;;;;10.70;99.90;;;;;;4998130;28;19931;-72
2021/04/21 07:30:23;;;;;;;;;;;10.80;99.90;;;;;;4993666;28;19918;-73
2021/04/21 07:32:48;;;;;;;;;;;10.90;99.90;;;;;;4998425;28;19921;-72
2021/04/21 07:35:18;;;;;;;;;;;11.00;99.90;;;;;;4997440;28;21662;-72
2021/04/21 07:37:45;;;;;;;;;;;11.10;99.90;;;;;;4996974;28;19922;-73
2021/04/21 07:40:23;;;;;;;;;;;11.20;99.90;;;;;;4993506;28;21460;-73
2021/04/21 07:42:49;;;;;;;;;;;11.30;99.90;;;;;;4996814;28;19972;-73
2021/04/21 07:45:20;;;;;;;;;;;11.40;99.90;;;;;;4998205;28;19941;-72
2021/04/21 07:47:46;;;;;;;;;;;11.50;99.90;;;;;;4996456;28;19921;-73
2021/04/21 07:50:11;;;;;;;;;;;11.70;99.90;;;;;;4997666;28;20614;-73
2021/04/21 07:52:37;;;;;;;;;;;11.90;99.90;;;;;;4992869;28;20370;-72
2021/04/21 07:55:05;;;;;;;;;;;12.10;99.90;;;;;;4997320;28;21711;-73
2021/04/21 07:57:31;;;;;;;;;;;12.20;99.90;;;;;;4996849;28;20798;-72
2021/04/21 07:59:57;;;;;;;;;;;12.40;99.90;;;;;;4982979;28;19974;-72
2021/04/21 08:02:29;;;;;;;;;;;12.60;99.90;;;;;;4996564;28;19921;-72
2021/04/21 08:04:58;;;;;;;;;;;12.80;99.90;;;;;;4992901;28;20390;-72
2021/04/21 08:07:34;;;;;;;;;;;13.00;99.90;;;;;;4997276;28;19921;-73
2021/04/21 08:10:00;;;;;;;;;;;13.20;99.90;;;;;;4997204;28;19921;-73
2021/04/21 08:12:30;;;;;;;;;;;13.40;99.90;;;;;;4992986;28;20382;-73
2021/04/21 08:15:01;;;;;;;;;;;13.60;90.90;;;;;;4978782;28;19922;-73
2021/04/21 08:17:27;;;;;;;;;;;13.70;92.10;;;;;;4996810;28;19922;-72
2021/04/21 08:19:53;;;;;;;;;;;13.80;90.50;;;;;;4997079;28;19940;-72
2021/04/21 08:22:29;;;;;;;;;;;13.90;90.40;;;;;;4996912;28;20496;-72
2021/04/21 08:24:57;;;;;;;;;;;14.00;86.60;;;;;;4996782;28;20018;-72
2021/04/21 08:27:23;;;;;;;;;;;14.10;81.20;;;;;;4997577;28;20008;-73
2021/04/21 08:29:50;;;;;;;;;;;14.20;84.30;;;;;;4982537;28;20244;-72
2021/04/21 08:32:19;;;;;;;;;;;14.30;81.30;;;;;;4996728;28;19929;-72
2021/04/21 08:34:47;;;;;;;;;;;14.40;86.30;;;;;;4978575;28;19918;-72
2021/04/21 08:37:13;;;;;;;;;;;14.40;79.30;;;;;;4996672;28;19921;-72
2021/04/21 08:39:41;;;;;;;;;;;14.40;78.40;;;;;;4992068;28;19924;-72
2021/04/21 08:42:07;;;;;;;;;;;14.40;80.70;;;;;;4996511;28;20059;-72
2021/04/21 08:44:36;;;;;;;;;;;14.60;83.30;;;;;;4996970;28;19918;-72
2021/04/21 08:47:06;;;;;;;;;;;14.80;80.90;;;;;;4993220;28;19925;-72
2021/04/21 08:49:32;;;;;;;;;;;14.80;79.10;;;;;;4996767;28;20012;-72
2021/04/21 08:51:58;;;;;;;;;;;14.90;78.10;;;;;;4992471;28;19925;-74
2021/04/21 08:54:24;;;;;;;;;;;14.90;77.80;;;;;;4996120;28;19997;-74
2021/04/21 08:56:50;;;;;;;;;;;15.00;77.20;;;;;;4996311;28;20385;-72
2021/04/21 08:59:17;;;;;;;;;;;15.20;79.20;;;;;;4992310;28;21797;-73
2021/04/21 09:01:45;;;;;;;;;;;15.10;77.30;;;;;;4996145;28;19932;-72
2021/04/21 09:04:11;;;;;;;;;;;15.10;76.80;;;;;;4991975;28;19921;-73
2021/04/21 09:06:40;;;;;;;;;;;15.10;76.50;;;;;;4991975;28;20594;-73
2021/04/21 09:09:05;;;;;;;;;;;15.10;74.70;;;;;;4992335;28;19921;-72
2021/04/21 09:11:32;;;;;;;;;;;15.20;75.00;;;;;;4991415;28;20039;-73
2021/04/21 09:13:58;;;;;;;;;;;15.40;77.60;;;;;;4982087;28;19921;-73
2021/04/21 09:16:26;;;;;;;;;;;15.50;77.50;;;;;;4996755;28;19919;-73
2021/04/21 09:18:53;;;;;;;;;;;15.70;77.10;;;;;;4995775;28;19922;-73
2021/04/21 09:21:27;;;;;;;;;;;15.90;75.50;;;;;;4978705;28;19918;-73
2021/04/21 09:23:52;;;;;;;;;;;16.10;81.20;;;;;;4996984;28;19917;-74
2021/04/21 09:26:37;;;;;;;;;;;16.10;70.40;;;;;;4991508;28;20259;-73
2021/04/21 09:29:03;;;;;;;;;;;16.40;77.60;;;;;;4995891;28;19957;-72
2021/04/21 09:31:31;;;;;;;;;;;16.50;74.10;;;;;;4995836;28;19933;-72
2021/04/21 09:34:12;;;;;;;;;;;16.60;76.10;;;;;;4995559;28;20259;-73
2021/04/21 09:36:40;;;;;;;;;;;16.70;71.30;;;;;;4995928;28;19928;-72
2021/04/21 09:39:18;;;;;;;;;;;16.70;71.80;;;;;;4991866;28;19922;-72
2021/04/21 09:41:44;;;;;;;;;;;16.70;69.30;;;;;;4992263;28;19917;-73
2021/04/21 09:44:17;;;;;;;;;;;16.50;68.80;;;;;;4996548;28;20336;-74
2021/04/21 09:46:42;;;;;;;;;;;16.30;66.90;;;;;;4996322;28;19922;-74
2021/04/21 09:49:29;;;;;;;;;;;16.60;71.10;;;;;;4995425;28;19921;-74
2021/04/21 09:51:56;;;;;;;;;;;16.60;70.30;;;;;;4995771;28;19932;-72
2021/04/21 09:54:36;;;;;;;;;;;16.60;68.50;;;;;;4996136;28;19921;-71
2021/04/21 09:57:07;;;;;;;;;;;16.30;67.00;;;;;;4977865;28;19987;-73
2021/04/21 09:59:33;;;;;;;;;;;16.20;68.10;;;;;;4995118;28;19921;-73
2021/04/21 10:02:04;;;;;;;;;;;16.20;69.50;;;;;;5009927;28;20638;-73
2021/04/21 10:04:32;;;;;;;;;;;16.20;68.80;;;;;;4995346;28;21760;-72
2021/04/21 10:07:04;;;;;;;;;;;16.10;67.90;;;;;;4996375;28;19921;-73
2021/04/21 10:09:37;;;;;;;;;;;16.10;67.70;;;;;;4996836;28;20049;-72
2021/04/21 10:12:15;;;;;;;;;;;16.10;67.00;;;;;;4990935;28;20417;-73
2021/04/21 10:14:41;;;;;;;;;;;16.30;68.80;;;;;;4999055;28;19945;-73
2021/04/21 10:17:09;;;;;;;;;;;16.30;69.70;;;;;;4997784;28;19925;-72
2021/04/21 10:19:39;;;;;;;;;;;16.40;68.90;;;;;;4980673;28;19987;-72
2021/04/21 10:22:07;;;;;;;;;;;16.20;65.40;;;;;;4998750;28;20570;-72
2021/04/21 10:24:33;;;;;;;;;;;16.00;65.70;;;;;;4999778;28;19921;-73
2021/04/21 10:27:00;;;;;;;;;;;16.00;67.00;;;;;;4994744;28;19936;-71
2021/04/21 10:29:28;;;;;;;;;;;15.80;65.00;;;;;;4996039;28;20323;-73
2021/04/21 10:31:56;;;;;;;;;;;15.80;65.50;;;;;;4996057;28;21783;-73
2021/04/21 10:34:22;;;;;;;;;;;15.90;68.60;;;;;;4999092;28;19922;-73
2021/04/21 10:36:51;;;;;;;;;;;15.90;67.80;;;;;;4985221;28;20705;-72
2021/04/21 10:39:28;;;;;;;;;;;16.00;68.20;;;;;;4997490;28;20393;-73
2021/04/21 10:42:00;;;;;;;;;;;16.10;71.90;;;;;;4999471;28;19922;-73
2021/04/21 10:44:31;;;;;;;;;;;16.00;65.70;;;;;;4998269;28;19983;-73
2021/04/21 10:47:03;;;;;;;;;;;16.00;65.70;;;;;;4994391;28;19922;-73
2021/04/21 10:49:37;;;;;;;;;;;16.10;68.60;;;;;;4994782;28;19979;-73
2021/04/21 10:52:14;;;;;;;;;;;16.30;65.90;;;;;;4998226;28;19925;-73
2021/04/21 10:54:42;;;;;;;;;;;16.20;62.10;;;;;;4985587;28;19921;-73
2021/04/21 10:57:19;;;;;;;;;;;16.10;62.10;;;;;;4998182;28;19922;-73
2021/04/21 11:00:03;;;;;;;;;;;16.40;64.60;;;;;;4998357;28;20455;-72
2021/04/21 11:02:41;;;;;;;;;;;16.50;60.50;;;;;;4997960;28;20319;-72
2021/04/21 11:05:10;;;;;;;;;;;16.90;64.00;;;;;;5013796;28;19995;-72
2021/04/21 11:07:39;;;;;;;;;;;17.10;63.20;;;;;;4993838;28;20740;-72
2021/04/21 11:10:07;;;;;;;;;;;16.90;58.60;;;;;;4993582;28;19983;-72
2021/04/21 11:12:51;;;;;;;;;;;16.60;57.10;;;;;;4997706;28;20036;-72
2021/04/21 11:15:35;;;;;;;;;;;16.40;55.70;;;;;;4998854;28;19924;-72
2021/04/21 11:18:13;;;;;;;;;;;16.40;58.70;;;;;;4983306;28;19936;-72
2021/04/21 11:20:47;;;;;;;;;;;16.30;60.70;;;;;;4997338;28;19921;-72
2021/04/21 11:23:32;;;;;;;;;;;16.30;58.50;;;;;;4997432;28;20575;-73
2021/04/21 11:26:16;;;;;;;;;;;16.40;61.20;;;;;;4997702;28;20016;-73
2021/04/21 11:28:57;;;;;;;;;;;16.50;63.40;;;;;;4996869;28;19928;-73
2021/04/21 11:31:50;;;;;;;;;;;16.70;62.50;;;;;;4993578;28;20060;-71
2021/04/21 11:34:18;;;;;;;;;;;16.60;58.10;;;;;;4993238;28;19925;-73
2021/04/21 11:37:06;;;;;;;;;;;16.80;57.40;;;;;;4993673;28;19979;-72
2021/04/21 11:39:47;;;;;;;;;;;16.90;56.70;;;;;;4996799;28;20271;-73
2021/04/21 11:42:22;;;;;;;;;;;16.80;59.60;;;;;;4996101;28;19945;-73
2021/04/21 11:44:48;;;;;;;;;;;16.80;59.40;;;;;;4997524;28;19945;-73
2021/04/21 11:47:29;;;;;;;;;;;16.80;60.60;;;;;;4998031;28;20359;-73
2021/04/21 11:50:02;;;;;;;;;;;16.60;56.80;;;;;;4994530;28;19986;-74
2021/04/21 11:52:46;;;;;;;;;;;16.50;57.60;;;;;;4998047;28;20069;-73
2021/04/21 11:55:19;;;;;;;;;;;16.40;57.70;;;;;;4996358;28;19917;-72
2021/04/21 11:57:54;;;;;;;;;;;16.40;60.10;;;;;;4996717;28;20036;-72
2021/04/21 12:00:23;;;;;;;;;;;16.40;58.20;;;;;;4996872;28;19929;-73
2021/04/21 12:02:54;;;;;;;;;;;16.40;60.40;;;;;;4997461;28;21360;-73
2021/04/21 12:05:23;;;;;;;;;;;16.60;63.40;;;;;;5013291;28;19987;-73
2021/04/21 12:07:48;;;;;;;;;;;17.00;65.20;;;;;;4995980;28;19976;-71
2021/04/21 12:10:20;;;;;;;;;;;17.60;58.40;;;;;;4992495;28;19929;-73
2021/04/21 12:12:46;;;;;;;;;;;18.00;61.60;;;;;;4997013;28;19926;-73
2021/04/21 12:15:12;;;;;;;;;;;18.80;62.20;;;;;;4996187;28;19924;-71
2021/04/21 12:17:51;;;;;;;;;;;19.30;61.30;;;;;;4992246;28;20033;-71
2021/04/21 12:20:29;;;;;;;;;;;19.60;59.40;;;;;;4977238;28;19926;-71
2021/04/21 12:22:59;;;;;;;;;;;19.80;59.80;;;;;;4989310;28;19957;-73
2021/04/21 12:25:29;;;;;;;;;;;20.00;59.20;;;;;;4988664;28;20039;-73
2021/04/21 12:28:00;;;;;;;;;;;20.30;59.30;;;;;;4988247;28;19928;-73
2021/04/21 12:30:29;;;;;;;;;;;20.40;58.50;;;;;;4977769;28;20044;-72
2021/04/21 12:33:04;;;;;;;;;;;20.40;60.80;;;;;;4988222;28;20477;-73
2021/04/21 12:35:29;;;;;;;;;;;20.10;56.60;;;;;;4988502;28;20004;-73
2021/04/21 12:37:58;;;;;;;;;;;20.40;60.00;;;;;;4988883;28;19988;-73
2021/04/21 12:40:27;;;;;;;;;;;20.70;56.70;;;;;;4976725;28;19929;-73
2021/04/21 12:43:05;;;;;;;;;;;21.00;57.00;;;;;;4976702;28;19918;-75
2021/04/21 12:45:31;;;;;;;;;;;20.70;54.50;;;;;;4976284;28;19917;-75
2021/04/21 12:47:56;;;;;;;;;;;20.10;50.50;;;;;;4976567;28;19922;-73
2021/04/21 12:50:34;;;;;;;;;;;19.80;55.00;;;;;;4977249;28;19918;-74
2021/04/21 12:53:09;;;;;;;;;;;19.80;56.70;;;;;;4988233;28;19930;-73
2021/04/21 12:55:35;;;;;;;;;;;19.50;53.50;;;;;;4978511;28;19917;-73
2021/04/21 12:58:00;;;;;;;;;;;19.30;57.90;;;;;;4977772;28;20605;-74
2021/04/21 13:00:26;;;;;;;;;;;19.30;56.10;;;;;;4977606;28;19921;-73
2021/04/21 13:02:53;;;;;;;;;;;19.10;57.40;;;;;;4976985;28;20346;-74
2021/04/21 13:05:38;;;;;;;;;;;18.80;54.30;;;;;;4976345;28;19921;-73
2021/04/21 13:08:23;;;;;;;;;;;18.70;55.10;;;;;;4976068;28;19932;-73
2021/04/21 13:10:49;;;;;;;;;;;18.70;54.90;;;;;;4976207;28;19926;-74
2021/04/21 13:13:20;;;;;;;;;;;18.80;57.40;;;;;;4976846;28;19921;-73
2021/04/21 13:15:45;;;;;;;;;;;18.50;56.70;;;;;;4977469;28;20319;-72
2021/04/21 13:18:11;;;;;;;;;;;18.40;59.40;;;;;;4972643;28;19921;-74
2021/04/21 13:20:44;;;;;;;;;;;18.40;61.30;;;;;;4988514;28;19987;-73
2021/04/21 13:23:15;;;;;;;;;;;18.40;58.50;;;;;;4976770;28;19926;-74
2021/04/21 13:25:56;;;;;;;;;;;18.00;57.00;;;;;;4987661;28;19975;-73
2021/04/21 13:28:22;;;;;;;;;;;17.60;54.30;;;;;;4976326;28;19926;-73
2021/04/21 13:31:03;;;;;;;;;;;17.10;55.40;;;;;;4985586;28;19921;-74
2021/04/21 13:33:28;;;;;;;;;;;16.60;58.20;;;;;;4988478;28;19918;-73
2021/04/21 13:35:54;;;;;;;;;;;16.00;63.20;;;;;;4990660;28;20474;-74
2021/04/21 13:38:19;;;;;;;;;;;15.40;69.10;;;;;;4977600;28;20367;-74
2021/04/21 13:40:47;;;;;;;;;;;14.80;74.10;;;;;;4977438;28;19932;-74
2021/04/21 13:43:13;;;;;;;;;;;14.30;80.50;;;;;;4988497;28;19928;-74
2021/04/21 13:45:38;;;;;;;;;;;14.20;74.00;;;;;;4977023;28;19918;-74
2021/04/21 13:48:07;;;;;;;;;;;14.00;91.20;;;;;;4980050;28;19972;-76
2021/04/21 13:50:32;;;;;;;;;;;14.00;98.80;;;;;;4980403;28;19942;-72
2021/04/21 13:53:00;;;;;;;;;;;13.80;99.90;;;;;;4985535;28;19925;-74
2021/04/21 13:55:26;;;;;;;;;;;13.90;99.90;;;;;;4980333;28;19922;-74
2021/04/21 13:57:51;;;;;;;;;;;14.20;99.90;;;;;;4980276;28;20744;-74
2021/04/21 14:00:17;;;;;;;;;;;14.50;99.90;;;;;;4980128;28;19957;-74
2021/04/21 14:02:43;;;;;;;;;;;14.70;99.90;;;;;;4980015;28;20361;-73
2021/04/21 14:05:09;;;;;;;;;;;15.00;99.90;;;;;;4977753;28;20489;-73
2021/04/21 14:07:37;;;;;;;;;;;15.30;99.90;;;;;;4980558;28;20711;-73
2021/04/21 14:10:03;;;;;;;;;;;15.50;99.90;;;;;;4979166;28;19922;-73
2021/04/21 14:12:30;;;;;;;;;;;15.60;96.00;;;;;;4980956;28;20619;-73
2021/04/21 14:14:56;;;;;;;;;;;15.80;95.50;;;;;;4980340;28;19921;-73
2021/04/21 14:17:22;;;;;;;;;;;16.10;92.20;;;;;;4985254;28;19932;-73
2021/04/21 14:19:49;;;;;;;;;;;16.30;87.60;;;;;;4999692;28;19957;-73
2021/04/21 14:22:16;;;;;;;;;;;16.40;94.70;;;;;;4999357;28;19918;-73
2021/04/21 14:24:44;;;;;;;;;;;16.70;89.00;;;;;;4998819;28;20014;-73
2021/04/21 14:27:12;;;;;;;;;;;16.90;90.90;;;;;;4981502;28;19960;-73
2021/04/21 14:29:37;;;;;;;;;;;17.00;80.40;;;;;;4994846;28;19921;-73
2021/04/21 14:32:06;;;;;;;;;;;17.20;84.60;;;;;;4998536;28;19936;-73
2021/04/21 14:34:31;;;;;;;;;;;17.30;80.80;;;;;;4998366;28;20631;-73
2021/04/21 14:36:57;;;;;;;;;;;17.30;73.10;;;;;;4998124;28;19929;-73
2021/04/21 14:39:22;;;;;;;;;;;17.40;68.50;;;;;;4999692;28;19922;-73
2021/04/21 14:41:50;;;;;;;;;;;17.50;76.50;;;;;;4998537;28;20017;-73